Time;durP1;ratioP1;P1;durP2;ratioP2;P2;SDS_P1;SDS_P2;PMS_P1;PMS_P2;Temp;Humidity;BMP_temperature;BMP_pressure;BME280_temperature;BME280_humidity;BME280_pressure;Samples;Min_cycle;Max_cycle;Signal;HPM_P1;HPM_P2
2021/10/30 00:00:07;;;;;;;4.87;3.73;;;8.60;99.90;;;;;;6151987;23;20152;-78
2021/10/30 00:02:33;;;;;;;3.63;3.07;;;8.60;99.90;;;;;;6125252;23;20186;-77
2021/10/30 00:04:58;;;;;;;3.10;2.47;;;8.80;99.90;;;;;;6151625;23;20160;-79
2021/10/30 00:07:24;;;;;;;3.50;3.10;;;8.80;99.90;;;;;;6150932;23;20193;-77
2021/10/30 00:09:50;;;;;;;3.83;3.20;;;8.70;99.90;;;;;;6152031;23;20156;-77
2021/10/30 00:12:15;;;;;;;4.23;3.20;;;8.70;99.90;;;;;;6151160;23;20162;-77
2021/10/30 00:14:43;;;;;;;3.70;2.90;;;8.60;99.90;;;;;;6151133;23;20233;-77
2021/10/30 00:17:09;;;;;;;3.87;3.03;;;8.60;99.90;;;;;;6150869;23;20172;-79
2021/10/30 00:19:35;;;;;;;5.30;3.20;;;8.60;99.90;;;;;;6124449;23;20170;-79
2021/10/30 00:22:01;;;;;;;3.70;2.97;;;8.50;99.90;;;;;;6151256;23;20223;-77
2021/10/30 00:24:27;;;;;;;4.50;3.20;;;8.50;99.90;;;;;;6125882;23;20164;-78
2021/10/30 00:26:52;;;;;;;4.80;3.10;;;8.40;99.90;;;;;;6124944;23;20183;-78
2021/10/30 00:29:18;;;;;;;3.87;3.00;;;8.40;99.90;;;;;;6151513;23;20215;-75
2021/10/30 00:31:44;;;;;;;4.03;3.30;;;8.30;99.90;;;;;;6150634;23;20223;-76
2021/10/30 00:34:09;;;;;;;3.70;3.03;;;8.20;99.90;;;;;;6151126;23;20194;-79
2021/10/30 00:36:35;;;;;;;3.77;3.37;;;8.20;99.90;;;;;;6151502;23;20326;-79
2021/10/30 00:39:01;;;;;;;4.60;3.30;;;8.10;99.90;;;;;;6150573;23;20152;-79
2021/10/30 00:41:27;;;;;;;5.07;3.83;;;8.10;99.90;;;;;;6150849;23;20175;-76
2021/10/30 00:43:53;;;;;;;5.50;3.80;;;8.00;99.90;;;;;;6151353;23;20627;-77
2021/10/30 00:46:18;;;;;;;3.43;3.13;;;8.00;99.90;;;;;;6151007;23;20156;-76
2021/10/30 00:48:44;;;;;;;3.93;3.50;;;8.00;99.90;;;;;;6151283;23;20179;-78
2021/10/30 00:51:12;;;;;;;5.80;3.63;;;7.90;99.90;;;;;;6150193;23;20160;-76
2021/10/30 00:53:39;;;;;;;3.83;3.30;;;7.90;99.90;;;;;;6150618;23;20180;-77
2021/10/30 00:56:05;;;;;;;6.10;3.00;;;7.80;99.90;;;;;;6151305;23;20212;-77
2021/10/30 00:58:36;;;;;;;4.20;3.20;;;7.70;99.90;;;;;;6125751;23;20187;-77
2021/10/30 01:01:06;;;;;;;5.27;3.50;;;7.60;99.90;;;;;;6125206;23;20194;-79
2021/10/30 01:03:33;;;;;;;4.63;3.73;;;7.50;99.90;;;;;;6150118;23;20155;-77
2021/10/30 01:05:59;;;;;;;4.47;3.93;;;7.50;99.90;;;;;;6150347;23;20160;-76
2021/10/30 01:08:25;;;;;;;5.40;3.73;;;7.40;99.90;;;;;;6150809;23;20180;-77
2021/10/30 01:10:51;;;;;;;4.97;3.80;;;7.30;99.90;;;;;;6151389;23;20159;-77
2021/10/30 01:13:17;;;;;;;5.10;3.57;;;7.40;99.90;;;;;;6124845;23;20168;-76
2021/10/30 01:15:43;;;;;;;6.70;3.97;;;7.40;99.90;;;;;;6150334;23;20159;-77
2021/10/30 01:18:09;;;;;;;5.20;3.83;;;7.30;99.90;;;;;;6150294;23;20191;-78
2021/10/30 01:20:34;;;;;;;4.43;3.53;;;7.30;99.90;;;;;;6151250;23;20160;-78
2021/10/30 01:23:02;;;;;;;5.30;4.00;;;7.30;99.90;;;;;;6125446;23;20159;-77
2021/10/30 01:25:28;;;;;;;5.07;3.93;;;7.30;99.90;;;;;;6151599;23;20596;-79
2021/10/30 01:27:55;;;;;;;6.97;4.00;;;7.30;99.90;;;;;;6124756;23;20171;-77
2021/10/30 01:30:22;;;;;;;5.17;3.70;;;7.50;99.90;;;;;;6125334;23;20160;-76
2021/10/30 01:32:59;;;;;;;4.27;3.73;;;7.60;99.90;;;;;;6151393;23;20193;-78
2021/10/30 01:35:32;;;;;;;5.00;3.63;;;7.60;99.90;;;;;;6150695;23;20151;-78
2021/10/30 01:37:58;;;;;;;4.10;3.50;;;7.60;99.90;;;;;;6150851;23;20191;-77
2021/10/30 01:40:24;;;;;;;4.60;3.70;;;7.60;99.90;;;;;;6150569;23;20619;-77
2021/10/30 01:43:01;;;;;;;6.60;3.33;;;7.70;99.90;;;;;;6150355;23;20155;-78
2021/10/30 01:45:28;;;;;;;4.30;3.60;;;7.70;99.90;;;;;;6151161;23;20185;-79
2021/10/30 01:47:55;;;;;;;4.87;3.67;;;7.70;99.90;;;;;;6151041;23;20254;-77
2021/10/30 01:50:21;;;;;;;4.23;3.60;;;7.60;99.90;;;;;;6124615;23;20168;-77
2021/10/30 01:52:47;;;;;;;4.63;3.60;;;7.70;99.90;;;;;;6150472;23;20494;-79
2021/10/30 01:55:15;;;;;;;7.57;3.33;;;7.80;99.90;;;;;;6150265;23;20758;-80
2021/10/30 01:57:41;;;;;;;4.33;3.53;;;7.70;99.90;;;;;;6124413;23;20976;-78
2021/10/30 02:00:08;;;;;;;4.67;3.80;;;7.70;99.90;;;;;;6150328;23;20178;-78
2021/10/30 02:02:34;;;;;;;5.90;3.97;;;7.80;99.90;;;;;;6123751;23;20156;-77
2021/10/30 02:05:00;;;;;;;5.67;4.17;;;7.70;99.90;;;;;;6150414;23;20170;-79
2021/10/30 02:07:26;;;;;;;4.30;3.43;;;7.70;99.90;;;;;;6150136;23;20195;-75
2021/10/30 02:09:52;;;;;;;4.70;3.90;;;7.70;99.90;;;;;;6149682;23;20265;-78
2021/10/30 02:12:18;;;;;;;4.40;3.70;;;7.70;99.90;;;;;;6151089;23;20152;-76
2021/10/30 02:14:43;;;;;;;4.80;3.50;;;7.80;99.90;;;;;;6149905;23;20187;-77
2021/10/30 02:17:09;;;;;;;6.90;3.57;;;7.70;99.90;;;;;;6149680;23;20518;-78
2021/10/30 02:19:34;;;;;;;6.03;3.73;;;7.70;99.90;;;;;;6149791;23;20159;-77
2021/10/30 02:22:00;;;;;;;4.13;3.70;;;7.70;99.90;;;;;;6123943;23;20198;-77
2021/10/30 02:24:25;;;;;;;4.53;3.97;;;7.70;99.90;;;;;;6124014;23;20160;-79
2021/10/30 02:26:51;;;;;;;5.73;4.63;;;7.70;99.90;;;;;;6150089;23;20182;-77
2021/10/30 02:29:17;;;;;;;3.97;3.40;;;7.80;99.90;;;;;;6149780;23;20156;-77
2021/10/30 02:31:43;;;;;;;5.60;4.30;;;7.70;99.90;;;;;;6149645;23;20603;-77
2021/10/30 02:34:08;;;;;;;5.07;3.53;;;7.80;99.90;;;;;;6149376;23;20190;-75
2021/10/30 02:36:34;;;;;;;4.70;3.80;;;7.80;99.90;;;;;;6149086;23;20156;-78
2021/10/30 02:38:59;;;;;;;4.17;3.77;;;7.70;99.90;;;;;;6147847;23;20210;-77
2021/10/30 02:41:25;;;;;;;5.07;3.40;;;7.60;99.90;;;;;;6120387;23;20164;-77
2021/10/30 02:43:51;;;;;;;5.77;3.67;;;7.60;99.90;;;;;;6144724;23;20198;-76
2021/10/30 02:46:16;;;;;;;5.10;4.00;;;7.60;99.90;;;;;;6119370;23;20476;-76
2021/10/30 02:48:42;;;;;;;5.07;3.97;;;7.70;99.90;;;;;;6150853;23;20179;-77
2021/10/30 02:51:08;;;;;;;4.33;3.60;;;7.70;99.90;;;;;;6150092;23;20278;-80
2021/10/30 02:53:33;;;;;;;5.37;3.47;;;7.60;99.90;;;;;;6150519;23;20247;-77
2021/10/30 02:55:59;;;;;;;5.10;3.67;;;7.70;99.90;;;;;;6150600;23;20197;-79
2021/10/30 02:58:25;;;;;;;6.17;4.17;;;7.70;99.90;;;;;;6150732;23;20184;-78
2021/10/30 03:00:51;;;;;;;9.13;4.13;;;7.70;99.90;;;;;;6150430;23;20148;-77
2021/10/30 03:03:16;;;;;;;5.10;4.00;;;7.60;99.90;;;;;;6123509;23;20191;-76
2021/10/30 03:05:42;;;;;;;4.90;3.83;;;7.40;99.90;;;;;;6150774;23;20152;-78
2021/10/30 03:08:07;;;;;;;5.20;4.23;;;7.30;99.90;;;;;;6124517;23;20180;-77
2021/10/30 03:10:34;;;;;;;5.70;3.83;;;7.20;99.90;;;;;;6123871;23;20621;-76
2021/10/30 03:12:59;;;;;;;5.50;4.03;;;7.10;99.90;;;;;;6150131;23;20152;-77
2021/10/30 03:15:25;;;;;;;5.17;4.00;;;6.90;99.90;;;;;;6151364;23;20301;-78
2021/10/30 03:17:51;;;;;;;4.57;3.87;;;6.80;99.90;;;;;;6149906;23;20187;-78
2021/10/30 03:20:16;;;;;;;5.70;4.70;;;6.60;99.90;;;;;;6148126;23;20151;-78
2021/10/30 03:22:42;;;;;;;5.57;4.53;;;6.70;99.90;;;;;;6148395;23;20183;-78
2021/10/30 03:25:08;;;;;;;4.77;3.93;;;6.60;99.90;;;;;;6148729;23;20158;-78
2021/10/30 03:27:34;;;;;;;5.03;4.50;;;6.50;99.90;;;;;;6148029;23;20266;-78
2021/10/30 03:30:00;;;;;;;6.50;4.00;;;6.50;99.90;;;;;;6148771;23;20183;-78
2021/10/30 03:32:25;;;;;;;5.00;4.10;;;6.40;99.90;;;;;;6149024;23;20156;-78
2021/10/30 03:34:51;;;;;;;6.53;4.80;;;6.30;99.90;;;;;;6149638;23;20238;-79
2021/10/30 03:37:17;;;;;;;4.80;3.80;;;6.20;99.90;;;;;;6149418;23;20171;-78
2021/10/30 03:39:43;;;;;;;4.80;4.27;;;6.20;99.90;;;;;;6123175;23;20246;-79
2021/10/30 03:42:08;;;;;;;6.53;4.57;;;6.10;99.90;;;;;;6149012;23;20468;-78
2021/10/30 03:44:35;;;;;;;6.80;4.77;;;6.10;99.90;;;;;;6123183;23;21036;-79
2021/10/30 03:47:01;;;;;;;5.63;4.60;;;6.10;99.90;;;;;;6149343;23;20176;-78
2021/10/30 03:49:26;;;;;;;6.63;5.23;;;6.10;99.90;;;;;;6149151;23;20190;-78
2021/10/30 03:51:52;;;;;;;7.20;5.40;;;6.10;99.90;;;;;;6148726;23;20242;-80
2021/10/30 03:54:18;;;;;;;6.90;5.63;;;6.10;99.90;;;;;;6148847;23;20187;-79
2021/10/30 03:56:43;;;;;;;6.50;5.60;;;6.20;99.90;;;;;;6149008;23;20162;-79
2021/10/30 03:59:09;;;;;;;7.67;5.67;;;6.10;99.90;;;;;;6148918;23;20151;-78
2021/10/30 04:01:35;;;;;;;7.43;5.30;;;6.10;99.90;;;;;;6148344;23;20230;-79
2021/10/30 04:04:01;;;;;;;6.03;4.83;;;6.10;99.90;;;;;;6148850;23;20620;-78
2021/10/30 04:06:26;;;;;;;5.73;4.83;;;6.20;99.90;;;;;;6148565;23;20163;-78
2021/10/30 04:08:52;;;;;;;7.33;5.83;;;6.10;99.90;;;;;;6123941;23;20541;-78
2021/10/30 04:11:18;;;;;;;6.80;5.30;;;6.10;99.90;;;;;;6156959;23;20151;-79
2021/10/30 04:13:43;;;;;;;6.57;5.13;;;6.10;99.90;;;;;;6157967;23;20186;-79
2021/10/30 04:16:09;;;;;;;6.83;5.23;;;6.00;99.90;;;;;;6131583;23;20159;-79
2021/10/30 04:18:34;;;;;;;6.60;5.33;;;6.00;99.90;;;;;;6156822;23;20270;-79
2021/10/30 04:21:00;;;;;;;6.13;5.10;;;6.00;99.90;;;;;;6131367;23;20522;-80
2021/10/30 04:23:26;;;;;;;6.33;5.10;;;6.00;99.90;;;;;;6156956;23;20156;-78
2021/10/30 04:25:51;;;;;;;6.37;4.90;;;6.00;99.90;;;;;;6129399;23;20174;-79
2021/10/30 04:28:17;;;;;;;9.33;5.47;;;6.00;99.90;;;;;;6152779;23;20258;-79
2021/10/30 04:30:43;;;;;;;6.40;4.90;;;6.10;99.90;;;;;;6155568;23;20155;-79
2021/10/30 04:33:13;;;;;;;6.97;5.60;;;6.30;99.90;;;;;;6125599;23;20164;-78
2021/10/30 04:35:41;;;;;;;7.43;5.37;;;6.30;99.90;;;;;;6121807;23;20226;-79
2021/10/30 04:38:07;;;;;;;6.27;4.97;;;6.40;99.90;;;;;;6148160;23;20182;-78
2021/10/30 04:40:32;;;;;;;6.20;4.90;;;6.30;99.90;;;;;;6121580;23;20488;-78
2021/10/30 04:42:58;;;;;;;7.37;5.00;;;6.40;99.90;;;;;;6148005;23;20183;-78
2021/10/30 04:45:23;;;;;;;7.37;5.27;;;6.40;99.90;;;;;;6148040;23;20159;-78
2021/10/30 04:47:49;;;;;;;6.77;5.00;;;6.60;99.90;;;;;;6147938;23;20868;-78
2021/10/30 04:50:15;;;;;;;6.03;4.73;;;6.70;99.90;;;;;;6121938;23;20178;-77
2021/10/30 04:52:43;;;;;;;6.80;5.00;;;6.70;99.90;;;;;;6121351;23;20250;-78
2021/10/30 04:55:08;;;;;;;6.97;4.73;;;6.70;99.90;;;;;;6121518;23;20187;-78
2021/10/30 04:57:34;;;;;;;5.20;3.60;;;6.60;99.90;;;;;;6147676;23;20206;-78
2021/10/30 05:00:00;;;;;;;6.40;4.50;;;6.50;99.90;;;;;;6121287;23;20218;-79
2021/10/30 05:02:25;;;;;;;5.53;4.20;;;6.50;99.90;;;;;;6147459;23;20159;-77
2021/10/30 05:04:51;;;;;;;5.40;3.93;;;6.60;99.90;;;;;;6147705;23;20166;-78
2021/10/30 05:07:16;;;;;;;6.77;4.90;;;6.70;99.90;;;;;;6147743;23;20175;-78
2021/10/30 05:09:43;;;;;;;5.87;4.77;;;6.70;99.90;;;;;;6147516;23;20156;-78
2021/10/30 05:12:09;;;;;;;5.97;4.50;;;6.60;99.90;;;;;;6147517;23;20612;-77
2021/10/30 05:14:35;;;;;;;6.73;4.83;;;6.50;99.90;;;;;;6147398;23;20175;-78
2021/10/30 05:17:01;;;;;;;7.10;5.40;;;6.40;99.90;;;;;;6147959;23;20178;-78
2021/10/30 05:19:26;;;;;;;8.20;5.40;;;6.30;99.90;;;;;;6147207;23;20266;-77
2021/10/30 05:21:52;;;;;;;7.10;5.97;;;6.30;99.90;;;;;;6147655;23;20235;-77
2021/10/30 05:24:17;;;;;;;7.30;5.93;;;6.20;99.90;;;;;;6147532;23;20159;-78
2021/10/30 05:26:43;;;;;;;9.60;6.00;;;6.20;99.90;;;;;;6121138;23;20210;-78
2021/10/30 05:29:09;;;;;;;8.03;6.30;;;6.20;99.90;;;;;;6147587;23;20178;-77
2021/10/30 05:31:35;;;;;;;9.63;6.73;;;6.20;99.90;;;;;;6147073;23;20239;-78
2021/10/30 05:34:01;;;;;;;7.87;6.20;;;6.20;99.90;;;;;;6147506;23;20207;-77
2021/10/30 05:36:28;;;;;;;9.00;7.00;;;6.20;99.90;;;;;;6146537;23;20159;-77
2021/10/30 05:38:54;;;;;;;8.70;6.90;;;6.10;99.90;;;;;;6147614;23;20171;-79
2021/10/30 05:41:20;;;;;;;9.20;6.87;;;6.10;99.90;;;;;;6147347;23;20152;-79
2021/10/30 05:43:46;;;;;;;9.77;6.67;;;6.10;99.90;;;;;;6146895;23;20159;-78
2021/10/30 05:46:13;;;;;;;7.37;6.27;;;6.00;99.90;;;;;;6121102;23;20158;-77
2021/10/30 05:48:39;;;;;;;8.77;6.90;;;5.90;99.90;;;;;;6143670;23;20254;-77
2021/10/30 05:51:05;;;;;;;8.97;6.60;;;5.80;99.90;;;;;;6146772;23;20183;-78
2021/10/30 05:53:31;;;;;;;8.70;6.87;;;5.70;99.90;;;;;;6120501;23;20222;-77
2021/10/30 05:55:57;;;;;;;10.33;6.30;;;5.70;99.90;;;;;;6121304;23;20167;-78
2021/10/30 05:58:22;;;;;;;9.63;5.97;;;5.60;99.90;;;;;;6147029;23;20176;-77
2021/10/30 06:00:48;;;;;;;8.13;6.00;;;5.70;99.90;;;;;;6140889;23;20152;-78
2021/10/30 06:03:14;;;;;;;7.60;5.47;;;5.80;99.90;;;;;;6144651;23;20167;-77
2021/10/30 06:05:39;;;;;;;7.23;5.57;;;6.00;99.90;;;;;;6145164;23;20542;-77
2021/10/30 06:08:05;;;;;;;8.93;6.03;;;6.10;99.90;;;;;;6147201;23;20179;-78
2021/10/30 06:10:31;;;;;;;10.77;7.67;;;6.10;99.90;;;;;;6146646;23;20152;-76
2021/10/30 06:12:57;;;;;;;10.93;8.17;;;5.90;99.90;;;;;;6146954;23;20151;-78
2021/10/30 06:15:23;;;;;;;11.63;8.20;;;5.80;99.90;;;;;;6146522;23;20186;-77
2021/10/30 06:17:49;;;;;;;10.63;7.57;;;5.70;99.90;;;;;;6146656;23;20211;-76
2021/10/30 06:20:14;;;;;;;10.43;7.63;;;5.70;99.90;;;;;;6149973;23;20167;-75
2021/10/30 06:22:43;;;;;;;9.60;7.87;;;5.50;99.90;;;;;;6148822;23;20590;-79
2021/10/30 06:25:14;;;;;;;8.80;6.50;;;5.50;99.90;;;;;;6120863;23;20233;-77
2021/10/30 06:27:40;;;;;;;7.23;5.90;;;5.50;99.90;;;;;;6147747;23;20218;-78
2021/10/30 06:30:07;;;;;;;8.00;6.13;;;5.70;99.90;;;;;;6147543;23;20159;-77
2021/10/30 06:32:33;;;;;;;8.63;6.73;;;5.90;99.90;;;;;;6122243;23;20159;-78
2021/10/30 06:34:59;;;;;;;7.33;5.80;;;6.00;99.90;;;;;;6146982;23;20184;-77
2021/10/30 06:37:25;;;;;;;9.13;7.17;;;6.00;99.90;;;;;;6146521;23;20182;-78
2021/10/30 06:39:50;;;;;;;11.33;7.40;;;6.30;99.90;;;;;;6146656;23;20502;-76
2021/10/30 06:42:16;;;;;;;10.50;7.80;;;6.40;99.90;;;;;;6149120;23;20151;-75
2021/10/30 06:44:44;;;;;;;10.80;7.43;;;6.40;99.90;;;;;;6122064;23;20482;-77
2021/10/30 06:47:10;;;;;;;10.27;7.67;;;6.50;99.90;;;;;;6145800;23;20179;-77
2021/10/30 06:49:35;;;;;;;9.10;7.03;;;6.50;99.90;;;;;;6145917;23;20486;-77
2021/10/30 06:52:03;;;;;;;9.90;7.13;;;6.50;99.90;;;;;;6146675;23;20498;-78
2021/10/30 06:54:28;;;;;;;10.80;7.93;;;6.60;99.90;;;;;;6148983;23;20250;-77
2021/10/30 06:56:54;;;;;;;9.53;7.47;;;6.60;99.90;;;;;;6151547;23;20180;-79
2021/10/30 06:59:20;;;;;;;9.50;6.87;;;6.60;99.90;;;;;;6124341;23;20163;-78
2021/10/30 07:01:45;;;;;;;11.23;7.03;;;6.80;99.90;;;;;;6147057;23;20494;-78
2021/10/30 07:04:12;;;;;;;7.90;6.67;;;6.90;99.90;;;;;;6150952;23;20155;-79
2021/10/30 07:06:38;;;;;;;8.73;6.73;;;7.10;99.90;;;;;;6126361;23;20302;-79
2021/10/30 07:09:03;;;;;;;12.60;6.40;;;7.20;99.90;;;;;;6150960;23;20179;-79
2021/10/30 07:11:29;;;;;;;8.90;6.40;;;7.40;99.90;;;;;;6150500;23;20159;-78
2021/10/30 07:13:55;;;;;;;7.90;5.63;;;7.50;99.90;;;;;;6150922;23;20184;-79
2021/10/30 07:16:21;;;;;;;7.77;6.10;;;7.80;99.90;;;;;;6150625;23;20166;-79
2021/10/30 07:18:47;;;;;;;6.33;5.43;;;8.00;99.90;;;;;;6150487;23;20622;-78
2021/10/30 07:21:13;;;;;;;7.87;5.90;;;8.10;99.90;;;;;;6150872;23;20167;-75
2021/10/30 07:23:38;;;;;;;6.23;5.43;;;8.20;99.90;;;;;;6150353;23;20160;-78
2021/10/30 07:26:05;;;;;;;8.67;5.60;;;8.40;99.90;;;;;;6149855;23;20159;-77
2021/10/30 07:28:32;;;;;;;10.33;5.30;;;8.60;99.90;;;;;;6122755;23;20184;-76
2021/10/30 07:30:57;;;;;;;6.23;5.60;;;8.80;99.90;;;;;;6123798;23;20191;-78
2021/10/30 07:33:23;;;;;;;8.37;5.57;;;8.90;99.90;;;;;;6149642;23;20570;-79
2021/10/30 07:35:48;;;;;;;6.73;5.07;;;9.10;99.90;;;;;;6149565;23;20152;-78
2021/10/30 07:38:15;;;;;;;8.10;5.47;;;9.20;99.90;;;;;;6149579;23;20172;-77
2021/10/30 07:40:40;;;;;;;8.30;5.50;;;9.30;99.90;;;;;;6148462;23;20490;-74
2021/10/30 07:43:06;;;;;;;7.57;5.57;;;9.40;99.90;;;;;;6122599;23;20162;-79
2021/10/30 07:45:33;;;;;;;6.33;4.60;;;9.50;99.90;;;;;;6148264;23;20459;-79
2021/10/30 07:47:59;;;;;;;5.80;5.10;;;9.70;99.90;;;;;;6149375;23;20187;-76
2021/10/30 07:50:28;;;;;;;6.53;5.17;;;9.80;99.90;;;;;;6149077;23;20163;-78
2021/10/30 07:52:54;;;;;;;9.57;5.40;;;9.90;99.90;;;;;;6122388;23;20488;-79
2021/10/30 07:55:20;;;;;;;7.17;5.70;;;10.10;99.90;;;;;;6149238;23;20183;-78
2021/10/30 07:57:46;;;;;;;6.93;5.90;;;10.20;99.90;;;;;;6123376;23;20203;-80
2021/10/30 08:00:12;;;;;;;7.03;5.90;;;10.20;99.90;;;;;;6147495;23;20191;-77
2021/10/30 08:02:38;;;;;;;7.30;5.70;;;10.20;99.90;;;;;;6147589;23;20770;-78
2021/10/30 08:05:08;;;;;;;7.33;5.73;;;10.10;99.90;;;;;;6148353;23;20227;-78
2021/10/30 08:07:34;;;;;;;7.87;6.03;;;10.00;99.90;;;;;;6149321;23;20242;-77
2021/10/30 08:10:01;;;;;;;7.97;6.77;;;9.80;99.90;;;;;;6123563;23;20574;-78
2021/10/30 08:12:27;;;;;;;7.70;6.37;;;9.80;99.90;;;;;;6149649;23;20206;-77
2021/10/30 08:14:53;;;;;;;10.07;6.50;;;9.70;99.90;;;;;;6149702;23;20692;-78
2021/10/30 08:17:18;;;;;;;8.10;6.50;;;9.60;99.90;;;;;;6148699;23;20183;-79
2021/10/30 08:19:44;;;;;;;8.77;6.70;;;9.60;99.90;;;;;;6148898;23;20219;-75
2021/10/30 08:22:09;;;;;;;9.23;6.80;;;9.60;99.90;;;;;;6149209;23;20151;-78
2021/10/30 08:24:35;;;;;;;9.30;6.60;;;9.60;99.90;;;;;;6123405;23;20175;-76
2021/10/30 08:27:01;;;;;;;9.70;8.03;;;9.70;99.90;;;;;;6149498;23;20211;-77
2021/10/30 08:29:27;;;;;;;10.40;7.53;;;9.70;99.90;;;;;;6148371;23;20164;-77
2021/10/30 08:31:53;;;;;;;9.37;8.00;;;9.80;99.90;;;;;;6122776;23;20164;-77
2021/10/30 08:34:19;;;;;;;12.83;8.10;;;9.80;99.90;;;;;;6149783;23;20183;-77
2021/10/30 08:36:44;;;;;;;9.93;7.93;;;9.80;99.90;;;;;;6149279;23;20156;-80
2021/10/30 08:39:10;;;;;;;15.10;9.30;;;9.70;99.90;;;;;;6150168;23;20152;-76
2021/10/30 08:41:36;;;;;;;12.13;8.97;;;9.70;99.90;;;;;;6149582;23;20168;-77
2021/10/30 08:44:02;;;;;;;14.37;9.50;;;9.70;99.90;;;;;;6123154;23;20223;-80
2021/10/30 08:46:29;;;;;;;14.03;9.37;;;10.00;99.90;;;;;;6148895;23;20187;-80
2021/10/30 08:48:55;;;;;;;13.23;9.75;;;10.20;99.90;;;;;;6149549;23;20644;-80
2021/10/30 08:51:21;;;;;;;11.77;9.07;;;10.30;99.90;;;;;;6149539;23;20195;-80
2021/10/30 08:53:47;;;;;;;11.77;9.50;;;10.40;99.90;;;;;;6123941;23;20950;-80
2021/10/30 08:56:12;;;;;;;13.87;10.50;;;10.40;99.90;;;;;;6123518;23;20164;-80
2021/10/30 08:58:38;;;;;;;12.67;10.10;;;10.40;99.90;;;;;;6148690;23;20883;-79
2021/10/30 09:01:09;;;;;;;14.95;11.35;;;10.60;99.90;;;;;;6149039;23;20159;-78
2021/10/30 09:03:36;;;;;;;13.90;11.10;;;10.70;99.90;;;;;;6148850;23;20295;-80
2021/10/30 09:06:04;;;;;;;15.93;11.73;;;10.80;99.90;;;;;;6149281;23;20230;-79
2021/10/30 09:08:31;;;;;;;16.00;12.13;;;11.00;99.90;;;;;;6122539;23;20203;-77
2021/10/30 09:11:09;;;;;;;16.33;12.20;;;11.00;99.90;;;;;;6148223;23;20156;-77
2021/10/30 09:13:36;;;;;;;15.60;11.90;;;11.10;99.90;;;;;;6121857;23;20178;-77
2021/10/30 09:16:02;;;;;;;14.70;11.00;;;11.30;99.90;;;;;;6121861;23;20164;-80
2021/10/30 09:18:36;;;;;;;14.90;11.90;;;11.50;99.90;;;;;;6147365;23;20187;-75
2021/10/30 09:21:05;;;;;;;15.45;11.57;;;11.70;99.90;;;;;;6121002;23;20543;-78
2021/10/30 09:23:31;;;;;;;13.90;10.98;;;11.90;99.90;;;;;;6120587;23;20152;-78
2021/10/30 09:25:59;;;;;;;14.80;11.57;;;12.00;99.90;;;;;;6147585;23;20148;-76
2021/10/30 09:28:27;;;;;;;14.90;11.45;;;11.90;99.90;;;;;;6146623;23;20198;-77
2021/10/30 09:30:59;;;;;;;18.15;11.98;;;11.70;99.90;;;;;;6148403;23;20167;-77
2021/10/30 09:33:27;;;;;;;15.82;12.40;;;11.60;99.90;;;;;;6121731;23;20155;-77
2021/10/30 09:35:54;;;;;;;16.45;12.52;;;11.60;99.90;;;;;;6147664;23;20765;-78
2021/10/30 09:38:30;;;;;;;16.73;12.52;;;11.50;99.90;;;;;;6145424;23;20172;-78
2021/10/30 09:40:56;;;;;;;15.52;12.32;;;11.60;99.90;;;;;;6121238;23;20619;-77
2021/10/30 09:43:22;;;;;;;16.50;11.95;;;11.70;99.90;;;;;;6148929;23;20151;-78
2021/10/30 09:45:50;;;;;;;17.00;13.18;;;11.70;99.90;;;;;;6146932;23;20212;-78
2021/10/30 09:48:21;;;;;;;15.88;12.35;;;11.70;99.90;;;;;;6148054;23;20695;-79
2021/10/30 09:50:49;;;;;;;15.85;12.48;;;11.70;99.90;;;;;;6148269;23;20132;-79
2021/10/30 09:53:33;;;;;;;16.30;12.60;;;11.70;99.90;;;;;;6149645;23;20159;-79
2021/10/30 09:55:59;;;;;;;15.15;12.27;;;11.70;99.90;;;;;;6150351;23;20167;-79
2021/10/30 09:58:46;;;;;;;16.75;13.00;;;11.70;99.90;;;;;;6125227;23;20186;-79
2021/10/30 10:01:20;;;;;;;16.92;12.48;;;11.90;99.90;;;;;;6148986;23;20163;-78
2021/10/30 10:03:50;;;;;;;16.70;13.52;;;11.80;99.90;;;;;;6147441;23;20159;-78
2021/10/30 10:06:22;;;;;;;17.63;13.63;;;11.80;99.90;;;;;;6146636;23;20159;-78
2021/10/30 10:08:49;;;;;;;18.58;14.30;;;11.80;99.90;;;;;;6119020;23;20179;-79
2021/10/30 10:11:17;;;;;;;18.00;13.48;;;11.80;99.90;;;;;;6145734;23;20605;-79
2021/10/30 10:13:45;;;;;;;19.08;13.73;;;11.80;99.90;;;;;;6119206;23;20187;-79
2021/10/30 10:16:13;;;;;;;18.38;14.27;;;11.80;99.90;;;;;;6145759;23;20152;-78
2021/10/30 10:18:40;;;;;;;17.52;12.77;;;11.80;99.90;;;;;;6146404;23;20187;-78
2021/10/30 10:21:10;;;;;;;16.80;12.95;;;11.90;99.90;;;;;;6151981;23;20191;-79
2021/10/30 10:23:40;;;;;;;18.10;13.68;;;11.90;99.90;;;;;;6126081;23;20679;-75
2021/10/30 10:26:06;;;;;;;17.48;13.35;;;11.90;99.90;;;;;;6152346;23;20187;-76
2021/10/30 10:28:34;;;;;;;14.35;11.45;;;12.00;99.90;;;;;;6152340;23;20522;-78
2021/10/30 10:31:11;;;;;;;15.10;11.02;;;12.00;99.90;;;;;;6152179;23;20160;-78
2021/10/30 10:33:41;;;;;;;11.82;9.93;;;12.10;99.90;;;;;;6125580;23;20163;-77
2021/10/30 10:36:21;;;;;;;15.35;10.65;;;12.30;99.90;;;;;;6151671;23;20216;-78
2021/10/30 10:38:58;;;;;;;14.05;10.63;;;12.40;99.90;;;;;;6151104;23;20182;-75
2021/10/30 10:41:43;;;;;;;13.35;11.30;;;12.60;99.90;;;;;;6151417;23;20151;-78
2021/10/30 10:44:36;;;;;;;16.80;11.60;;;12.60;99.90;;;;;;6151808;23;20551;-78
2021/10/30 10:47:02;;;;;;;13.93;11.45;;;12.60;99.90;;;;;;6087447;23;20218;-78
2021/10/30 10:52:04;;;;;;;14.45;11.05;;;12.70;99.90;;;;;;6150958;23;20171;-78
2021/10/30 10:54:52;;;;;;;16.17;14.13;;;12.70;99.90;;;;;;6150738;23;20198;-76
2021/10/30 10:57:34;;;;;;;161.77;96.50;;;12.80;99.90;;;;;;6123656;23;20770;-78
2021/10/30 11:00:10;;;;;;;26.92;22.02;;;12.80;99.90;;;;;;6150489;23;20147;-79
2021/10/30 11:02:51;;;;;;;36.80;31.33;;;12.80;99.90;;;;;;6151033;23;20155;-79
2021/10/30 11:05:23;;;;;;;32.03;24.45;;;12.80;99.90;;;;;;6151097;23;20144;-79
2021/10/30 11:07:48;;;;;;;46.70;39.20;;;12.80;99.90;;;;;;6150310;23;20206;-79
2021/10/30 11:10:30;;;;;;;96.53;65.93;;;12.80;99.90;;;;;;6124166;23;20497;-81
2021/10/30 11:13:01;;;;;;;36.40;28.05;;;12.90;99.90;;;;;;6150257;23;20151;-79
2021/10/30 11:15:33;;;;;;;43.20;32.10;;;12.80;99.90;;;;;;6148132;23;20636;-80
2021/10/30 11:18:05;;;;;;;26.10;20.58;;;12.90;99.90;;;;;;6123737;23;20235;-81
2021/10/30 11:20:46;;;;;;;20.70;17.25;;;12.80;99.90;;;;;;6149218;23;20136;-82
2021/10/30 11:23:23;;;;;;;19.92;15.50;;;12.70;99.90;;;;;;6150658;23;20151;-77
2021/10/30 11:26:15;;;;;;;19.83;16.30;;;12.70;99.90;;;;;;6125263;23;20255;-81
2021/10/30 11:28:40;;;;;;;17.60;13.90;;;12.70;99.90;;;;;;6151772;23;20254;-81
2021/10/30 11:31:18;;;;;;;25.13;19.00;;;12.70;99.90;;;;;;6152747;23;20156;-79
2021/10/30 11:33:45;;;;;;;19.42;14.82;;;12.80;99.90;;;;;;6151028;23;20175;-78
2021/10/30 11:36:13;;;;;;;22.23;17.17;;;12.70;99.90;;;;;;6150275;23;20183;-78
2021/10/30 11:38:44;;;;;;;25.40;19.92;;;12.50;99.90;;;;;;6149619;23;20214;-78
2021/10/30 11:41:19;;;;;;;24.85;18.55;;;12.30;99.90;;;;;;6123988;23;20183;-78
2021/10/30 11:43:47;;;;;;;24.05;19.00;;;12.20;99.90;;;;;;6151483;23;20219;-77
2021/10/30 11:46:15;;;;;;;24.77;20.00;;;12.10;99.90;;;;;;6151741;23;20155;-77
2021/10/30 11:48:50;;;;;;;25.20;20.08;;;12.00;99.90;;;;;;6151872;23;20259;-77
2021/10/30 11:51:21;;;;;;;29.05;19.77;;;12.00;99.90;;;;;;6149886;23;20588;-77
2021/10/30 11:53:48;;;;;;;23.05;18.33;;;12.10;99.90;;;;;;6151049;23;20665;-77
2021/10/30 11:56:25;;;;;;;24.70;19.63;;;12.10;99.90;;;;;;6152276;23;20155;-78
2021/10/30 11:58:59;;;;;;;27.42;20.15;;;12.00;99.90;;;;;;6125741;23;20238;-77
2021/10/30 12:01:45;;;;;;;25.75;19.58;;;12.00;99.90;;;;;;6151502;23;20140;-77
2021/10/30 12:04:20;;;;;;;26.67;20.58;;;12.00;99.90;;;;;;6152671;23;20174;-76
2021/10/30 12:06:51;;;;;;;26.90;21.02;;;12.00;99.90;;;;;;6151397;23;20144;-78
2021/10/30 12:09:23;;;;;;;27.70;20.90;;;12.00;99.90;;;;;;6151155;23;20178;-77
2021/10/30 12:11:51;;;;;;;29.30;21.73;;;12.10;99.90;;;;;;6151002;23;20167;-77
2021/10/30 12:14:44;;;;;;;27.08;20.83;;;12.10;99.90;;;;;;6150681;23;20230;-78
2021/10/30 12:17:16;;;;;;;25.77;20.73;;;12.10;99.90;;;;;;6148489;23;20632;-78
2021/10/30 12:19:54;;;;;;;27.02;21.15;;;12.20;99.90;;;;;;6152976;23;20155;-75
2021/10/30 12:22:25;;;;;;;28.63;21.35;;;12.20;99.90;;;;;;6151671;23;20140;-77
2021/10/30 12:25:04;;;;;;;28.52;21.02;;;12.20;99.90;;;;;;6126261;23;20934;-75
2021/10/30 12:27:35;;;;;;;27.95;22.23;;;12.20;99.90;;;;;;6152375;23;20202;-76
2021/10/30 12:30:12;;;;;;;26.83;21.02;;;12.20;99.90;;;;;;6150399;23;20148;-78
2021/10/30 12:32:40;;;;;;;29.55;23.25;;;12.10;99.90;;;;;;6152504;23;20179;-76
2021/10/30 12:35:06;;;;;;;27.65;21.50;;;12.10;99.90;;;;;;6151656;23;20184;-78
2021/10/30 12:37:35;;;;;;;28.02;21.92;;;12.10;99.90;;;;;;6150934;23;20187;-76
2021/10/30 12:40:01;;;;;;;26.75;21.98;;;12.10;99.90;;;;;;6148255;23;20159;-77
2021/10/30 12:42:27;;;;;;;29.88;22.77;;;12.10;99.90;;;;;;6148948;23;20162;-76
2021/10/30 12:44:53;;;;;;;30.35;23.10;;;12.10;99.90;;;;;;6150147;23;20156;-78
2021/10/30 12:47:21;;;;;;;27.00;21.65;;;12.10;99.90;;;;;;6151203;23;20250;-78
2021/10/30 12:50:05;;;;;;;27.42;21.20;;;12.10;99.90;;;;;;6152404;23;20144;-78
2021/10/30 12:52:46;;;;;;;31.48;22.38;;;12.20;99.90;;;;;;6125489;23;20206;-77